createdAt,value
2023-04-19T00:00:08.309Z,6.00
2023-04-19T00:02:36.699Z,6.73
2023-04-19T00:05:05.812Z,7.03
2023-04-19T00:07:34.245Z,7.00
2023-04-19T00:10:02.312Z,6.90
2023-04-19T00:12:31.645Z,7.33
2023-04-19T00:14:59.714Z,6.73
2023-04-19T00:17:28.238Z,7.73
2023-04-19T00:19:56.801Z,7.50
2023-04-19T00:22:24.842Z,7.47
2023-04-19T00:24:52.714Z,6.97
2023-04-19T00:27:20.640Z,7.30
2023-04-19T00:29:50.083Z,7.33
2023-04-19T00:32:18.016Z,7.33
2023-04-19T00:34:46.050Z,7.00
2023-04-19T00:37:13.933Z,7.77
2023-04-19T00:39:41.823Z,7.43
2023-04-19T00:42:09.800Z,7.67
2023-04-19T00:44:37.650Z,7.57
2023-04-19T00:47:07.029Z,7.90
2023-04-19T00:49:35.021Z,8.20
2023-04-19T00:52:03.356Z,7.20
2023-04-19T00:54:31.539Z,7.57
2023-04-19T00:56:59.691Z,7.80
2023-04-19T00:59:27.995Z,7.53
2023-04-19T01:01:56.234Z,7.43
2023-04-19T01:04:26.077Z,8.30
2023-04-19T01:06:54.879Z,8.50
2023-04-19T01:09:22.844Z,8.70
2023-04-19T01:11:51.169Z,8.80
2023-04-19T01:14:19.112Z,8.40
2023-04-19T01:16:47.979Z,9.30
2023-04-19T01:19:16.713Z,8.60
2023-04-19T01:21:46.428Z,8.80
2023-04-19T01:24:15.969Z,9.10
2023-04-19T01:26:44.090Z,8.67
2023-04-19T01:29:12.010Z,7.63
2023-04-19T01:31:40.284Z,9.13
2023-04-19T01:34:08.163Z,8.63
2023-04-19T01:36:36.142Z,8.80
2023-04-19T01:39:04.212Z,8.90
2023-04-19T01:41:33.444Z,9.60
2023-04-19T01:44:01.751Z,8.50
2023-04-19T01:46:29.716Z,10.13
2023-04-19T01:48:57.631Z,8.97
2023-04-19T01:51:25.852Z,9.20
2023-04-19T01:53:54.687Z,9.97
2023-04-19T01:56:24.246Z,10.00
2023-04-19T01:58:53.522Z,10.60
2023-04-19T02:01:21.728Z,9.30
2023-04-19T02:03:49.744Z,9.73
2023-04-19T02:06:18.000Z,9.87
2023-04-19T02:08:45.817Z,9.60
2023-04-19T02:11:15.619Z,10.83
2023-04-19T02:13:44.309Z,9.30
2023-04-19T02:16:13.838Z,10.10
2023-04-19T02:18:41.794Z,9.50
2023-04-19T02:21:10.928Z,9.90
2023-04-19T02:23:38.946Z,9.70
2023-04-19T02:26:06.990Z,10.03
2023-04-19T02:28:35.768Z,11.07
2023-04-19T02:31:06.677Z,10.63
2023-04-19T02:33:37.420Z,9.70
2023-04-19T02:36:05.585Z,10.07
2023-04-19T02:38:34.797Z,10.30
2023-04-19T02:41:04.343Z,10.50
2023-04-19T02:43:32.257Z,9.13
2023-04-19T02:46:00.184Z,9.97
2023-04-19T02:48:28.127Z,9.30
2023-04-19T02:50:57.525Z,8.87
2023-04-19T02:53:25.689Z,9.30
2023-04-19T02:55:53.769Z,8.93
2023-04-19T02:58:21.889Z,9.00
2023-04-19T03:01:01.388Z,8.93
2023-04-19T03:03:29.437Z,7.87
2023-04-19T03:05:59.148Z,8.10
2023-04-19T03:08:28.426Z,8.73
2023-04-19T03:10:56.369Z,8.40
2023-04-19T03:13:24.358Z,10.33
2023-04-19T03:15:52.364Z,8.80
2023-04-19T03:18:23.459Z,7.73
2023-04-19T03:20:53.549Z,9.50
2023-04-19T03:23:23.169Z,8.80
2023-04-19T03:25:52.092Z,9.40
2023-04-19T03:28:35.509Z,9.33
2023-04-19T03:31:21.783Z,9.20
2023-04-19T03:33:51.872Z,11.07
2023-04-19T03:36:22.659Z,10.30
2023-04-19T03:38:52.715Z,10.03
2023-04-19T03:41:25.334Z,10.43
2023-04-19T03:44:02.691Z,11.83
2023-04-19T03:46:31.575Z,10.60
2023-04-19T03:49:00.602Z,11.23
2023-04-19T03:51:29.714Z,12.50
2023-04-19T03:53:58.947Z,11.73
2023-04-19T03:56:28.063Z,11.90
2023-04-19T03:58:56.685Z,11.93
2023-04-19T04:01:25.416Z,12.80
2023-04-19T04:03:54.415Z,12.50
2023-04-19T04:06:22.871Z,14.17
2023-04-19T04:08:51.110Z,12.80
2023-04-19T04:11:20.463Z,12.47
2023-04-19T04:13:50.641Z,13.13
2023-04-19T04:16:22.902Z,13.00
2023-04-19T04:18:52.600Z,12.70
2023-04-19T04:21:21.471Z,14.60
2023-04-19T04:23:50.053Z,15.80
2023-04-19T04:26:43.994Z,13.70
2023-04-19T04:29:20.572Z,13.37
2023-04-19T04:31:50.789Z,14.47
2023-04-19T04:34:22.853Z,14.10
2023-04-19T04:36:56.341Z,14.87
2023-04-19T04:39:25.238Z,14.03
2023-04-19T04:41:54.526Z,14.90
2023-04-19T04:44:22.488Z,14.57
2023-04-19T04:46:50.726Z,13.83
2023-04-19T04:49:24.754Z,13.77
2023-04-19T04:51:52.695Z,14.00
2023-04-19T04:54:21.810Z,14.40
2023-04-19T04:56:50.321Z,14.20
2023-04-19T04:59:19.977Z,13.93
2023-04-19T05:01:50.400Z,13.93
2023-04-19T05:04:19.485Z,15.60
2023-04-19T05:06:47.396Z,14.20
2023-04-19T05:09:21.550Z,14.27
2023-04-19T05:11:49.546Z,13.90
2023-04-19T05:14:19.243Z,14.73
2023-04-19T05:16:47.343Z,13.87
2023-04-19T05:19:15.426Z,14.53
2023-04-19T05:21:49.271Z,14.27
2023-04-19T05:24:18.306Z,13.70
2023-04-19T05:26:47.100Z,12.90
2023-04-19T05:29:15.306Z,13.50
2023-04-19T05:31:49.324Z,14.27
2023-04-19T05:34:24.895Z,13.43
2023-04-19T05:36:54.667Z,14.87
2023-04-19T05:39:22.662Z,14.00
2023-04-19T05:41:50.869Z,14.60
2023-04-19T05:44:18.791Z,14.33
2023-04-19T05:46:47.047Z,12.40
2023-04-19T05:49:21.539Z,15.23
2023-04-19T05:52:15.793Z,14.03
2023-04-19T05:54:50.366Z,14.60
2023-04-19T05:57:18.323Z,13.87
2023-04-19T05:59:46.254Z,13.77
2023-04-19T06:02:17.984Z,13.67
2023-04-19T06:04:47.492Z,12.70
2023-04-19T06:07:30.173Z,14.27
2023-04-19T06:10:00.896Z,13.03
2023-04-19T06:12:28.825Z,13.67
2023-04-19T06:14:59.356Z,13.40
2023-04-19T06:17:27.798Z,14.40
2023-04-19T06:19:57.031Z,14.10
2023-04-19T06:22:25.084Z,13.33
2023-04-19T06:24:52.954Z,12.50
2023-04-19T06:27:20.828Z,12.50
2023-04-19T06:29:50.540Z,13.23
2023-04-19T06:32:19.202Z,14.47
2023-04-19T06:34:47.058Z,14.80
2023-04-19T06:37:16.399Z,12.73
2023-04-19T06:39:44.296Z,13.53
2023-04-19T06:42:12.460Z,13.97
2023-04-19T06:44:40.363Z,13.23
2023-04-19T06:47:08.297Z,13.50
2023-04-19T06:49:36.180Z,13.70
2023-04-19T06:52:04.455Z,14.17
2023-04-19T06:54:33.682Z,20.13
2023-04-19T06:57:02.400Z,14.33
2023-04-19T06:59:32.223Z,14.83
2023-04-19T07:02:00.243Z,14.23
2023-04-19T07:04:28.393Z,15.87
2023-04-19T07:06:56.377Z,13.50
2023-04-19T07:09:24.242Z,13.90
2023-04-19T07:11:53.657Z,14.63
2023-04-19T07:14:21.793Z,14.57
2023-04-19T07:16:50.876Z,14.53
2023-04-19T07:19:20.671Z,14.00
2023-04-19T07:21:48.510Z,15.00
2023-04-19T07:24:17.253Z,15.03
2023-04-19T07:26:45.388Z,14.93
2023-04-19T07:29:14.635Z,15.30
2023-04-19T07:31:42.673Z,14.87
2023-04-19T07:34:10.646Z,12.87
2023-04-19T07:36:39.029Z,14.57
2023-04-19T07:39:07.133Z,14.83
2023-04-19T07:41:36.092Z,14.90
2023-04-19T07:44:04.412Z,13.97
2023-04-19T07:46:33.746Z,13.10
2023-04-19T07:49:01.665Z,13.47
2023-04-19T07:51:29.650Z,14.10
2023-04-19T07:53:57.548Z,13.53
2023-04-19T07:56:26.409Z,13.37
2023-04-19T07:59:06.848Z,13.93
2023-04-19T08:01:38.167Z,13.60
2023-04-19T08:04:06.672Z,12.97
2023-04-19T08:06:34.793Z,14.10
2023-04-19T08:09:03.008Z,13.40
2023-04-19T08:11:31.021Z,13.70
2023-04-19T08:14:09.316Z,13.23
2023-04-19T08:17:19.265Z,14.57
2023-04-19T08:19:32.142Z,14.30
2023-04-19T08:21:59.986Z,16.10
2023-04-19T08:24:28.245Z,15.57
2023-04-19T08:26:57.083Z,14.30
2023-04-19T08:29:26.744Z,14.77
2023-04-19T08:31:56.196Z,16.40
2023-04-19T08:34:24.233Z,15.47
2023-04-19T08:37:03.573Z,15.50
2023-04-19T08:39:34.214Z,15.60
2023-04-19T08:42:10.922Z,15.23
2023-04-19T08:47:30.195Z,16.57
2023-04-19T08:50:13.978Z,17.00
2023-04-19T08:52:56.021Z,15.93
2023-04-19T08:55:29.501Z,16.87
2023-04-19T08:57:58.648Z,17.40
2023-04-19T09:00:26.698Z,15.97
2023-04-19T09:02:56.534Z,17.73
2023-04-19T09:05:24.853Z,14.00
2023-04-19T09:07:53.128Z,13.03
2023-04-19T09:10:22.527Z,10.40
2023-04-19T09:13:02.601Z,9.10
2023-04-19T09:15:39.371Z,10.43
2023-04-19T09:18:10.769Z,9.20
2023-04-19T09:20:39.501Z,8.60
2023-04-19T09:23:09.175Z,9.77
2023-04-19T09:25:52.927Z,9.17
2023-04-19T09:28:25.487Z,7.33
2023-04-19T09:33:36.245Z,6.33
2023-04-19T09:36:04.521Z,5.03
2023-04-19T09:38:32.455Z,4.87
2023-04-19T09:41:08.410Z,4.07
2023-04-19T09:44:01.548Z,3.73
2023-04-19T09:46:36.185Z,3.33
2023-04-19T09:49:33.775Z,3.30
2023-04-19T09:52:11.209Z,2.80
2023-04-19T09:54:40.156Z,3.00
2023-04-19T09:57:09.278Z,3.00
2023-04-19T09:59:37.182Z,2.93
2023-04-19T10:02:07.211Z,2.97
2023-04-19T10:04:54.384Z,2.90
2023-04-19T10:07:30.835Z,3.23
2023-04-19T10:10:11.880Z,2.60
2023-04-19T10:15:22.324Z,2.83
2023-04-19T10:17:50.624Z,3.03
2023-04-19T10:20:23.996Z,2.70
2023-04-19T10:22:52.601Z,2.80
2023-04-19T10:25:29.855Z,2.60
2023-04-19T10:27:58.951Z,2.63
2023-04-19T10:30:28.132Z,2.73
2023-04-19T10:32:57.594Z,2.90
2023-04-19T10:35:29.673Z,2.90
2023-04-19T10:38:06.951Z,2.87
2023-04-19T10:41:01.563Z,3.20
2023-04-19T10:43:31.028Z,3.00
2023-04-19T10:46:02.162Z,2.77
2023-04-19T10:48:39.111Z,2.70
2023-04-19T10:51:15.459Z,2.93
2023-04-19T10:53:52.190Z,2.90
2023-04-19T10:56:21.477Z,3.27
2023-04-19T10:59:15.720Z,2.70
2023-04-19T11:01:45.141Z,3.10
2023-04-19T11:04:14.498Z,3.10
2023-04-19T11:09:38.883Z,2.90
2023-04-19T11:12:08.822Z,3.10
2023-04-19T11:14:38.108Z,3.33
2023-04-19T11:17:16.021Z,3.20
2023-04-19T11:19:45.685Z,2.83
2023-04-19T11:22:13.599Z,3.20
2023-04-19T11:24:48.132Z,3.13
2023-04-19T11:27:16.383Z,3.30
2023-04-19T11:29:44.348Z,3.50
2023-04-19T11:32:12.277Z,3.37
2023-04-19T11:34:41.441Z,3.60
2023-04-19T11:37:10.836Z,3.63
2023-04-19T11:39:48.265Z,3.43
2023-04-19T11:42:20.482Z,3.47
2023-04-19T11:44:52.954Z,3.30
2023-04-19T11:47:21.136Z,4.10
2023-04-19T11:49:49.054Z,3.30
2023-04-19T11:52:23.545Z,3.10
2023-04-19T11:54:53.562Z,3.13
2023-04-19T11:57:31.631Z,3.43
2023-04-19T12:00:11.978Z,3.90
2023-04-19T12:02:45.243Z,3.90
2023-04-19T12:05:15.242Z,3.30
2023-04-19T12:08:00.866Z,3.70
2023-04-19T12:10:30.865Z,3.33
2023-04-19T12:12:58.949Z,3.90
2023-04-19T12:15:42.375Z,3.50
2023-04-19T12:18:10.398Z,3.33
2023-04-19T12:20:39.973Z,3.70
2023-04-19T12:23:11.141Z,3.60
2023-04-19T12:25:41.304Z,3.80
2023-04-19T12:28:09.475Z,3.63
2023-04-19T12:30:37.954Z,3.50
2023-04-19T12:33:07.451Z,3.90
2023-04-19T12:35:35.987Z,4.00
2023-04-19T12:38:03.904Z,3.40
2023-04-19T12:40:32.140Z,3.97
2023-04-19T12:43:01.498Z,4.03
2023-04-19T12:45:29.454Z,3.43
2023-04-19T12:47:57.374Z,4.10
2023-04-19T12:50:25.367Z,4.00
2023-04-19T12:52:53.800Z,3.97
2023-04-19T12:55:21.902Z,4.07
2023-04-19T12:57:50.033Z,3.50
2023-04-19T13:00:19.558Z,4.17
2023-04-19T13:02:48.303Z,3.83
2023-04-19T13:05:16.443Z,4.00
2023-04-19T13:07:44.365Z,4.20
2023-04-19T13:10:12.471Z,3.87
2023-04-19T13:12:40.770Z,3.90
2023-04-19T13:15:10.187Z,3.93
2023-04-19T13:17:39.593Z,3.63
2023-04-19T13:20:09.431Z,3.40
2023-04-19T13:22:37.682Z,4.40
2023-04-19T13:25:06.161Z,4.27
2023-04-19T13:27:34.093Z,4.33
2023-04-19T13:30:01.994Z,5.50
2023-04-19T13:32:30.261Z,4.50
2023-04-19T13:34:59.545Z,4.40
2023-04-19T13:37:27.533Z,4.23
2023-04-19T13:40:07.097Z,3.77
2023-04-19T13:42:43.148Z,4.10
2023-04-19T13:45:11.833Z,4.40
2023-04-19T13:47:39.759Z,4.00
2023-04-19T13:50:10.053Z,4.30
2023-04-19T13:52:38.023Z,4.47
2023-04-19T13:55:06.553Z,4.00
2023-04-19T13:57:35.009Z,4.30
2023-04-19T14:00:03.022Z,4.20
2023-04-19T14:02:35.772Z,4.40
2023-04-19T14:05:04.653Z,5.13
2023-04-19T14:07:34.016Z,7.23
2023-04-19T14:10:02.030Z,4.80
2023-04-19T14:12:29.938Z,4.63
2023-04-19T14:14:57.898Z,4.37
2023-04-19T14:17:26.120Z,4.40
2023-04-19T14:19:53.991Z,4.47
2023-04-19T14:22:21.809Z,4.70
2023-04-19T14:24:51.195Z,5.00
2023-04-19T14:27:19.415Z,5.13
2023-04-19T14:29:47.442Z,5.00
2023-04-19T14:34:46.460Z,4.40
2023-04-19T14:37:14.342Z,5.17
2023-04-19T14:39:42.255Z,5.50
2023-04-19T14:42:11.429Z,5.23
2023-04-19T14:44:39.271Z,5.20
2023-04-19T14:47:07.471Z,5.93
2023-04-19T14:49:35.558Z,6.40
2023-04-19T14:52:04.850Z,6.23
2023-04-19T14:54:32.759Z,5.73
2023-04-19T14:57:01.388Z,5.60
2023-04-19T14:59:31.051Z,6.00
2023-04-19T15:01:59.109Z,6.33
2023-04-19T15:04:27.150Z,6.50
2023-04-19T15:06:55.086Z,6.37
2023-04-19T15:09:23.025Z,6.80
2023-04-19T15:11:50.936Z,6.60
2023-04-19T15:14:19.822Z,7.50
2023-04-19T15:16:49.082Z,7.80
2023-04-19T15:19:17.157Z,7.00
2023-04-19T15:21:45.295Z,6.43
2023-04-19T15:24:13.244Z,7.20
2023-04-19T15:26:43.568Z,7.53
2023-04-19T15:29:12.310Z,6.30
2023-04-19T15:31:40.617Z,7.80
2023-04-19T15:34:09.924Z,7.43
2023-04-19T15:36:37.816Z,7.90
2023-04-19T15:39:05.702Z,7.53
2023-04-19T15:41:33.629Z,7.63
2023-04-19T15:44:01.560Z,7.07
2023-04-19T15:46:29.609Z,7.80
2023-04-19T15:48:57.467Z,7.50
2023-04-19T15:51:27.480Z,7.73
2023-04-19T15:53:55.349Z,7.90
2023-04-19T15:56:23.128Z,7.90
2023-04-19T15:58:50.968Z,8.23
2023-04-19T16:01:19.355Z,7.73
2023-04-19T16:03:47.724Z,7.70
2023-04-19T16:06:15.745Z,8.23
2023-04-19T16:08:45.037Z,8.20
2023-04-19T16:11:12.981Z,8.33
2023-04-19T16:13:40.778Z,8.10
2023-04-19T16:16:09.044Z,10.20
2023-04-19T16:18:36.970Z,12.57
2023-04-19T16:21:05.320Z,8.47
2023-04-19T16:23:33.214Z,9.27
2023-04-19T16:26:02.513Z,8.60
2023-04-19T16:28:30.610Z,8.40
2023-04-19T16:30:58.574Z,7.90
2023-04-19T16:33:26.440Z,7.90
2023-04-19T16:35:54.514Z,8.97
2023-04-19T16:38:22.372Z,7.93
2023-04-19T16:40:50.471Z,8.07
2023-04-19T16:43:20.802Z,9.80
2023-04-19T16:45:48.889Z,10.97
2023-04-19T16:48:16.932Z,8.90
2023-04-19T16:50:44.915Z,8.50
2023-04-19T16:53:12.875Z,8.87
2023-04-19T16:55:40.747Z,8.90
2023-04-19T16:58:08.630Z,9.50
2023-04-19T17:00:37.931Z,9.80
2023-04-19T17:03:05.936Z,8.77
2023-04-19T17:05:34.980Z,8.67
2023-04-19T17:08:02.829Z,10.03
2023-04-19T17:10:30.806Z,9.77
2023-04-19T17:12:58.940Z,9.73
2023-04-19T17:15:27.094Z,8.50
2023-04-19T17:17:56.950Z,10.07
2023-04-19T17:20:24.931Z,9.10
2023-04-19T17:22:52.776Z,9.70
2023-04-19T17:25:22.326Z,8.10
2023-04-19T17:27:50.807Z,8.80
2023-04-19T17:30:18.854Z,8.90
2023-04-19T17:32:46.942Z,9.47
2023-04-19T17:35:16.440Z,8.90
2023-04-19T17:37:44.541Z,9.80
2023-04-19T17:40:13.159Z,8.60
2023-04-19T17:42:41.039Z,8.77
2023-04-19T17:45:11.127Z,9.43
2023-04-19T17:47:39.442Z,9.70
2023-04-19T17:50:09.527Z,10.00
2023-04-19T17:52:39.588Z,9.93
2023-04-19T17:55:08.159Z,9.73
2023-04-19T17:57:36.195Z,9.50
2023-04-19T18:00:06.426Z,10.37
2023-04-19T18:02:37.281Z,12.90
2023-04-19T18:05:06.177Z,14.37
2023-04-19T18:07:34.195Z,12.47
2023-04-19T18:10:04.241Z,10.00
2023-04-19T18:12:32.172Z,10.53
2023-04-19T18:15:00.189Z,11.60
2023-04-19T18:17:28.239Z,10.13
2023-04-19T18:19:56.044Z,11.20
2023-04-19T18:22:24.087Z,11.73
2023-04-19T18:24:53.386Z,13.67
2023-04-19T18:27:22.673Z,10.87
2023-04-19T18:29:52.258Z,11.43
2023-04-19T18:32:21.858Z,11.23
2023-04-19T18:34:49.963Z,12.33
2023-04-19T18:37:18.316Z,12.00
2023-04-19T18:39:46.637Z,11.77
2023-04-19T18:42:14.493Z,11.47
2023-04-19T18:44:53.739Z,11.90
2023-04-19T18:47:22.511Z,12.17
2023-04-19T18:50:03.463Z,13.17
2023-04-19T18:52:32.901Z,12.10
2023-04-19T18:55:01.363Z,11.97
2023-04-19T18:57:34.199Z,11.63
2023-04-19T19:00:06.708Z,12.13
2023-04-19T19:02:36.966Z,11.47
2023-04-19T19:05:08.139Z,12.27
2023-04-19T19:07:38.077Z,11.80
2023-04-19T19:12:40.815Z,11.60
2023-04-19T19:15:11.020Z,11.97
2023-04-19T19:17:39.037Z,12.37
2023-04-19T19:20:09.213Z,12.83
2023-04-19T19:22:37.240Z,11.67
2023-04-19T19:25:05.642Z,12.47
2023-04-19T19:27:33.573Z,11.70
2023-04-19T19:30:03.443Z,13.43
2023-04-19T19:32:32.931Z,13.50
2023-04-19T19:35:05.334Z,12.03
2023-04-19T19:37:36.090Z,10.77
2023-04-19T19:40:06.459Z,13.10
2023-04-19T19:42:34.839Z,12.80
2023-04-19T19:45:04.028Z,13.00
2023-04-19T19:47:35.548Z,12.40
2023-04-19T19:50:42.027Z,11.87
2023-04-19T19:52:52.442Z,12.00
2023-04-19T19:55:20.333Z,12.70
2023-04-19T19:58:20.998Z,11.60
2023-04-19T20:01:04.743Z,12.33
2023-04-19T20:03:37.844Z,12.90
2023-04-19T20:08:42.518Z,12.77
2023-04-19T20:11:11.973Z,12.10
2023-04-19T20:13:39.852Z,12.30
2023-04-19T20:16:09.990Z,12.77
2023-04-19T20:18:39.655Z,13.50
2023-04-19T20:21:07.657Z,13.43
2023-04-19T20:23:38.692Z,12.10
2023-04-19T20:26:06.581Z,13.20
2023-04-19T20:28:35.006Z,12.60
2023-04-19T20:31:02.972Z,11.60
2023-04-19T20:33:31.002Z,12.90
2023-04-19T20:36:01.796Z,12.47
2023-04-19T20:38:29.785Z,12.33
2023-04-19T20:40:57.704Z,12.87
2023-04-19T20:43:26.032Z,13.07
2023-04-19T20:45:53.909Z,12.00
2023-04-19T20:48:22.106Z,13.03
2023-04-19T20:50:49.920Z,12.13
2023-04-19T20:53:19.102Z,12.37
2023-04-19T20:55:47.089Z,13.00
2023-04-19T20:58:14.907Z,11.63
2023-04-19T21:00:42.809Z,13.13
2023-04-19T21:03:11.018Z,12.10
2023-04-19T21:05:39.015Z,13.20
2023-04-19T21:08:06.914Z,12.83
2023-04-19T21:10:36.205Z,12.43
2023-04-19T21:13:04.016Z,12.63
2023-04-19T21:15:31.935Z,11.80
2023-04-19T21:17:59.979Z,12.40
2023-04-19T21:20:28.101Z,11.97
2023-04-19T21:22:56.030Z,12.00
2023-04-19T21:25:24.133Z,12.10
2023-04-19T21:27:53.294Z,12.60
2023-04-19T21:30:23.159Z,13.30
2023-04-19T21:32:51.226Z,10.90
2023-04-19T21:35:19.330Z,11.40
2023-04-19T21:37:47.188Z,12.87
2023-04-19T21:40:15.078Z,12.70
2023-04-19T21:42:43.002Z,12.47
2023-04-19T21:45:12.704Z,12.40
2023-04-19T21:47:40.593Z,12.07
2023-04-19T21:50:10.126Z,12.90
2023-04-19T21:52:38.094Z,11.60
2023-04-19T21:55:07.081Z,11.77
2023-04-19T21:57:35.072Z,11.87
2023-04-19T22:00:04.633Z,12.37
2023-04-19T22:02:36.562Z,12.90
2023-04-19T22:05:07.117Z,12.63
2023-04-19T22:07:37.381Z,13.47
2023-04-19T22:10:07.278Z,12.90
2023-04-19T22:12:36.262Z,12.40
2023-04-19T22:15:09.631Z,13.70
2023-04-19T22:17:40.489Z,12.93
2023-04-19T22:20:12.858Z,12.87
2023-04-19T22:22:40.892Z,12.37
2023-04-19T22:25:09.634Z,11.80
2023-04-19T22:27:37.568Z,13.27
2023-04-19T22:30:06.499Z,12.67
2023-04-19T22:32:34.378Z,14.20
2023-04-19T22:35:04.100Z,13.30
2023-04-19T22:37:32.190Z,12.20
2023-04-19T22:40:00.117Z,12.93
2023-04-19T22:42:28.045Z,13.73
2023-04-19T22:44:55.935Z,13.67
2023-04-19T22:47:23.900Z,12.77
2023-04-19T22:49:51.781Z,12.87
2023-04-19T22:52:21.068Z,11.97
2023-04-19T22:54:48.920Z,13.87
2023-04-19T22:57:16.981Z,13.07
2023-04-19T22:59:44.887Z,13.00
2023-04-19T23:02:12.806Z,14.07
2023-04-19T23:04:40.826Z,13.50
2023-04-19T23:07:08.709Z,12.43
2023-04-19T23:09:39.329Z,12.53
2023-04-19T23:12:08.303Z,13.40
2023-04-19T23:14:38.382Z,13.00
2023-04-19T23:17:06.424Z,14.07
2023-04-19T23:19:34.474Z,12.60
2023-04-19T23:22:02.473Z,13.47
2023-04-19T23:24:30.340Z,13.60
2023-04-19T23:26:59.750Z,13.80
2023-04-19T23:29:27.586Z,12.70
2023-04-19T23:31:55.538Z,13.27
2023-04-19T23:34:23.420Z,14.43
2023-04-19T23:36:51.429Z,13.73
2023-04-19T23:39:20.124Z,12.30
2023-04-19T23:41:48.263Z,13.40
2023-04-19T23:44:17.503Z,12.83
2023-04-19T23:46:45.492Z,12.90
2023-04-19T23:49:13.346Z,13.40
2023-04-19T23:51:41.328Z,12.73
2023-04-19T23:54:09.123Z,12.60
2023-04-19T23:56:36.987Z,14.03
2023-04-19T23:59:04.812Z,12.57
